createdAt,value
2023-09-30T00:08:23.684Z,96
2023-09-30T00:13:23.688Z,96
2023-09-30T00:23:23.688Z,96
2023-09-30T00:28:23.695Z,96
2023-09-30T00:38:23.693Z,96
2023-09-30T00:48:23.776Z,97
2023-09-30T00:58:23.690Z,97
2023-09-30T01:08:23.712Z,97
2023-09-30T01:18:23.675Z,97
2023-09-30T01:28:23.709Z,97
2023-09-30T01:38:23.697Z,97
2023-09-30T01:43:23.689Z,97
2023-09-30T01:53:23.660Z,97
2023-09-30T01:58:23.682Z,97
2023-09-30T02:08:23.681Z,97
2023-09-30T02:28:23.680Z,97
2023-09-30T02:33:23.783Z,97
2023-09-30T02:53:23.762Z,97
2023-09-30T03:03:23.723Z,97
2023-09-30T03:08:23.683Z,97
2023-09-30T03:18:23.779Z,97
2023-09-30T03:28:23.672Z,97
2023-09-30T03:33:23.703Z,97
2023-09-30T03:43:23.665Z,97
2023-09-30T03:48:23.710Z,97
2023-09-30T03:58:23.676Z,97
2023-09-30T04:03:23.922Z,97
2023-09-30T04:08:23.683Z,97
2023-09-30T04:13:23.703Z,97
2023-09-30T04:23:23.664Z,97
2023-09-30T04:43:23.677Z,97
2023-09-30T04:48:23.725Z,98
2023-09-30T04:58:26.226Z,98
2023-09-30T05:08:23.687Z,98
2023-09-30T05:13:23.688Z,98
2023-09-30T05:18:23.751Z,98
2023-09-30T05:23:23.683Z,98
2023-09-30T05:28:23.679Z,98
2023-09-30T05:38:23.689Z,98
2023-09-30T05:43:23.692Z,98
2023-09-30T05:53:23.723Z,98
2023-09-30T05:58:23.680Z,98
2023-09-30T06:08:23.663Z,98
2023-09-30T06:13:23.691Z,98
2023-09-30T06:23:23.663Z,98
2023-09-30T06:28:23.676Z,98
2023-09-30T06:38:23.686Z,98
2023-09-30T06:48:23.699Z,98
2023-09-30T06:58:23.675Z,98
2023-09-30T07:03:26.808Z,98
2023-09-30T07:13:23.684Z,98
2023-09-30T07:23:23.702Z,98
2023-09-30T07:28:23.690Z,98
2023-09-30T07:38:23.689Z,98
2023-09-30T07:48:23.722Z,97
2023-09-30T07:58:23.682Z,97
2023-09-30T08:08:23.657Z,97
2023-09-30T08:13:23.676Z,97
2023-09-30T08:18:23.719Z,97
2023-09-30T08:28:23.702Z,97
2023-09-30T08:38:23.708Z,97
2023-09-30T08:48:23.732Z,97
2023-09-30T08:58:23.696Z,97
2023-09-30T09:08:23.695Z,96
2023-09-30T09:13:23.705Z,96
2023-09-30T09:23:23.703Z,96
2023-09-30T09:33:23.730Z,97
2023-09-30T09:38:23.698Z,96
2023-09-30T09:48:23.691Z,95
2023-09-30T09:58:23.676Z,92
2023-09-30T10:03:23.737Z,92
2023-09-30T10:08:23.692Z,89
2023-09-30T10:18:23.690Z,85
2023-09-30T10:23:23.668Z,84
2023-09-30T10:33:23.792Z,81
2023-09-30T10:53:23.666Z,76
2023-09-30T11:08:23.669Z,79
2023-09-30T11:13:23.668Z,79
2023-09-30T11:18:23.715Z,76
2023-09-30T11:23:23.692Z,74
2023-09-30T11:33:23.731Z,70
2023-09-30T11:43:23.689Z,71
2023-09-30T11:53:23.688Z,64
2023-09-30T11:58:23.720Z,63
2023-09-30T12:08:23.672Z,58
2023-09-30T12:28:23.705Z,62
2023-09-30T12:38:23.680Z,60
2023-09-30T12:48:23.712Z,63
2023-09-30T12:53:23.686Z,63
2023-09-30T12:58:23.663Z,63
2023-09-30T13:08:23.668Z,60
2023-09-30T13:18:23.678Z,60
2023-09-30T13:23:23.877Z,56
2023-09-30T13:33:23.686Z,58
2023-09-30T13:38:23.755Z,55
2023-09-30T13:48:23.679Z,54
2023-09-30T13:53:23.694Z,54
2023-09-30T14:03:23.814Z,53
2023-09-30T14:12:50.343Z,55
2023-09-30T14:18:23.814Z,56
2023-09-30T14:23:23.708Z,59
2023-09-30T14:38:23.686Z,65
2023-09-30T14:48:23.685Z,65
2023-09-30T14:58:23.696Z,63
2023-09-30T15:03:23.817Z,62
2023-09-30T15:13:23.688Z,60
2023-09-30T15:18:23.700Z,59
2023-09-30T15:28:23.688Z,62
2023-09-30T15:38:23.687Z,66
2023-09-30T15:48:23.681Z,67
2023-09-30T15:58:23.682Z,69
2023-09-30T16:08:23.678Z,70
2023-09-30T16:13:23.687Z,72
2023-09-30T16:23:23.661Z,73
2023-09-30T16:28:23.714Z,74
2023-09-30T16:38:23.695Z,75
2023-09-30T16:43:23.717Z,76
2023-09-30T16:53:23.695Z,77
2023-09-30T17:03:23.700Z,78
2023-09-30T17:13:23.681Z,79
2023-09-30T17:23:23.686Z,79
2023-09-30T17:28:23.685Z,80
2023-09-30T17:38:23.680Z,81
2023-09-30T17:43:24.565Z,81
2023-09-30T17:53:23.810Z,82
2023-09-30T18:03:23.686Z,82
2023-09-30T18:13:23.694Z,82
2023-09-30T18:23:23.695Z,83
2023-09-30T18:33:23.706Z,83
2023-09-30T18:38:23.711Z,83
2023-09-30T18:43:23.718Z,84
2023-09-30T18:53:23.803Z,85
2023-09-30T18:58:23.710Z,85
2023-09-30T19:08:23.679Z,86
2023-09-30T19:13:23.724Z,86
2023-09-30T19:23:23.698Z,86
2023-09-30T19:28:23.752Z,87
2023-09-30T19:38:23.684Z,87
2023-09-30T19:53:23.682Z,88
2023-09-30T20:03:23.768Z,88
2023-09-30T20:08:23.790Z,89
2023-09-30T20:18:23.682Z,89
2023-09-30T20:28:23.686Z,90
2023-09-30T20:33:23.710Z,89
2023-09-30T20:43:23.699Z,88
2023-09-30T20:48:23.676Z,88
2023-09-30T20:53:23.684Z,88
2023-09-30T21:03:23.706Z,88
2023-09-30T21:13:23.690Z,88
2023-09-30T21:23:23.699Z,89
2023-09-30T21:33:23.670Z,89
2023-09-30T21:43:23.764Z,90
2023-09-30T21:53:23.677Z,90
2023-09-30T21:58:23.757Z,90
2023-09-30T22:03:23.764Z,90
2023-09-30T22:08:23.711Z,90
2023-09-30T22:18:23.722Z,91
2023-09-30T22:28:23.727Z,91
2023-09-30T22:33:23.689Z,91
2023-09-30T22:43:23.707Z,91
2023-09-30T22:48:23.744Z,91
2023-09-30T22:53:23.979Z,91
2023-09-30T23:03:23.764Z,91
2023-09-30T23:08:23.673Z,91
2023-09-30T23:13:23.706Z,91
2023-09-30T23:23:23.660Z,91
2023-09-30T23:28:23.706Z,91
2023-09-30T23:33:23.681Z,91
2023-09-30T23:43:23.711Z,92
2023-09-30T23:48:23.779Z,92
2023-09-30T23:53:23.878Z,92
